createdAt,value
2018-09-02T00:01:15.807Z,16.28
2018-09-02T00:03:48.957Z,16.21
2018-09-02T00:06:22.114Z,16.09
2018-09-02T00:08:55.286Z,16.04
2018-09-02T00:11:28.521Z,16.00
2018-09-02T00:14:01.692Z,15.88
2018-09-02T00:16:34.875Z,15.90
2018-09-02T00:19:08.106Z,15.90
2018-09-02T00:21:41.264Z,15.82
2018-09-02T00:24:14.426Z,15.71
2018-09-02T00:26:47.623Z,15.71
2018-09-02T00:29:20.801Z,15.72
2018-09-02T00:31:54.016Z,15.71
2018-09-02T00:34:27.233Z,15.73
2018-09-02T00:37:00.410Z,15.75
2018-09-02T00:39:33.596Z,15.68
2018-09-02T00:42:06.763Z,15.71
2018-09-02T00:44:39.949Z,15.74
2018-09-02T00:47:13.105Z,15.71
2018-09-02T00:49:46.270Z,15.75
2018-09-02T00:52:19.446Z,15.72
2018-09-02T00:54:52.598Z,15.75
2018-09-02T00:57:25.751Z,15.70
2018-09-02T00:59:59.029Z,15.79
2018-09-02T01:02:32.133Z,15.71
2018-09-02T01:05:05.592Z,15.65
2018-09-02T01:07:38.778Z,15.69
2018-09-02T01:10:11.932Z,15.73
2018-09-02T01:12:45.091Z,15.66
2018-09-02T01:15:18.269Z,15.65
2018-09-02T01:17:51.433Z,15.55
2018-09-02T01:20:24.598Z,15.51
2018-09-02T01:22:57.796Z,15.48
2018-09-02T01:25:30.884Z,15.50
2018-09-02T01:28:04.074Z,15.47
2018-09-02T01:30:37.472Z,15.46
2018-09-02T01:33:10.675Z,15.30
2018-09-02T01:35:44.009Z,15.27
2018-09-02T01:38:17.106Z,15.26
2018-09-02T01:40:50.257Z,15.27
2018-09-02T01:43:23.404Z,15.22
2018-09-02T01:45:56.515Z,15.16
2018-09-02T01:48:29.665Z,15.08
2018-09-02T01:51:02.736Z,15.15
2018-09-02T01:53:35.925Z,15.15
2018-09-02T01:56:09.065Z,15.11
2018-09-02T01:58:42.204Z,15.16
2018-09-02T02:01:15.333Z,15.15
2018-09-02T02:03:48.776Z,15.14
2018-09-02T02:06:21.929Z,15.08
2018-09-02T02:08:55.084Z,15.11
2018-09-02T02:11:28.244Z,15.05
2018-09-02T02:14:02.469Z,14.94
2018-09-02T02:16:35.853Z,14.93
2018-09-02T02:19:09.013Z,14.97
2018-09-02T02:21:42.173Z,14.96
2018-09-02T02:24:15.342Z,14.85
2018-09-02T02:26:48.493Z,14.87
2018-09-02T02:29:21.622Z,14.87
2018-09-02T02:31:54.775Z,14.92
2018-09-02T02:34:27.930Z,14.85
2018-09-02T02:37:01.033Z,14.89
2018-09-02T02:39:34.217Z,14.83
2018-09-02T02:42:07.337Z,14.77
2018-09-02T02:44:40.457Z,14.71
2018-09-02T02:47:13.643Z,14.62
2018-09-02T02:49:46.911Z,14.65
2018-09-02T02:52:20.098Z,14.70
2018-09-02T02:54:53.210Z,14.74
2018-09-02T02:57:26.343Z,14.71
2018-09-02T02:59:59.465Z,14.74
2018-09-02T03:02:32.623Z,14.77
2018-09-02T03:05:05.988Z,14.78
2018-09-02T03:07:39.190Z,14.78
2018-09-02T03:10:12.325Z,14.80
2018-09-02T03:12:45.470Z,14.83
2018-09-02T03:15:18.863Z,14.75
2018-09-02T03:17:52.004Z,14.69
2018-09-02T03:20:25.143Z,14.76
2018-09-02T03:22:58.329Z,14.74
2018-09-02T03:25:31.434Z,14.73
2018-09-02T03:28:04.521Z,14.63
2018-09-02T03:30:37.627Z,14.67
2018-09-02T03:33:10.775Z,14.67
2018-09-02T03:35:43.885Z,14.67
2018-09-02T03:38:17.023Z,14.66
2018-09-02T03:40:50.148Z,14.57
2018-09-02T03:43:23.359Z,14.55
2018-09-02T03:45:56.575Z,14.50
2018-09-02T03:48:29.962Z,14.54
2018-09-02T03:51:03.153Z,14.49
2018-09-02T03:53:36.253Z,14.50
2018-09-02T03:56:09.384Z,14.53
2018-09-02T03:58:42.562Z,14.60
2018-09-02T04:01:15.842Z,14.62
2018-09-02T04:03:48.990Z,14.53
2018-09-02T04:06:22.165Z,14.56
2018-09-02T04:08:55.255Z,14.51
2018-09-02T04:11:28.523Z,14.49
2018-09-02T04:14:01.620Z,14.50
2018-09-02T04:16:34.812Z,14.48
2018-09-02T04:19:07.933Z,14.40
2018-09-02T04:21:41.247Z,14.27
2018-09-02T04:24:14.373Z,14.30
2018-09-02T04:26:47.484Z,14.37
2018-09-02T04:29:20.564Z,14.29
2018-09-02T04:31:53.746Z,14.21
2018-09-02T04:34:26.973Z,14.18
2018-09-02T04:37:00.109Z,14.20
2018-09-02T04:39:33.237Z,14.25
2018-09-02T04:42:06.447Z,14.20
2018-09-02T04:44:39.680Z,14.24
2018-09-02T04:47:13.141Z,14.19
2018-09-02T04:49:46.301Z,14.24
2018-09-02T04:52:19.390Z,14.30
2018-09-02T04:54:52.521Z,14.27
2018-09-02T04:57:25.660Z,14.34
2018-09-02T04:59:58.768Z,14.30
2018-09-02T05:02:32.001Z,14.33
2018-09-02T05:05:05.277Z,14.32
2018-09-02T05:07:38.353Z,14.37
2018-09-02T05:10:11.496Z,14.34
2018-09-02T05:12:44.616Z,14.33
2018-09-02T05:15:17.733Z,14.40
2018-09-02T05:17:50.887Z,14.45
2018-09-02T05:20:24.066Z,14.50
2018-09-02T05:22:57.239Z,14.53
2018-09-02T05:25:30.381Z,14.54
2018-09-02T05:28:03.879Z,14.61
2018-09-02T05:30:37.161Z,14.58
2018-09-02T05:33:10.317Z,14.61
2018-09-02T05:35:43.404Z,14.68
2018-09-02T05:38:16.578Z,14.73
2018-09-02T05:40:49.736Z,14.74
2018-09-02T05:43:22.822Z,14.83
2018-09-02T05:45:55.979Z,14.82
2018-09-02T05:48:29.108Z,14.82
2018-09-02T05:51:02.248Z,14.77
2018-09-02T05:53:35.416Z,14.79
2018-09-02T05:56:08.561Z,14.70
2018-09-02T05:58:41.694Z,14.69
2018-09-02T06:01:14.835Z,14.72
2018-09-02T06:03:48.028Z,14.73
2018-09-02T06:06:21.248Z,14.76
2018-09-02T06:08:54.321Z,14.83
2018-09-02T06:11:27.453Z,14.84
2018-09-02T06:14:00.604Z,14.89
2018-09-02T06:16:33.799Z,14.93
2018-09-02T06:19:06.964Z,14.97
2018-09-02T06:21:40.070Z,14.98
2018-09-02T06:24:13.297Z,14.99
2018-09-02T06:26:46.441Z,14.96
2018-09-02T06:29:19.604Z,14.95
2018-09-02T06:31:52.754Z,15.01
2018-09-02T06:34:25.857Z,15.02
2018-09-02T06:36:58.980Z,14.99
2018-09-02T06:39:32.265Z,14.97
2018-09-02T06:42:05.384Z,15.00
2018-09-02T06:44:39.138Z,14.98
2018-09-02T06:47:12.210Z,14.99
2018-09-02T06:49:45.407Z,14.99
2018-09-02T06:52:18.569Z,15.00
2018-09-02T06:54:51.665Z,15.01
2018-09-02T06:57:24.773Z,15.04
2018-09-02T06:59:57.894Z,15.08
2018-09-02T07:02:31.037Z,15.14
2018-09-02T07:05:04.593Z,15.18
2018-09-02T07:07:37.713Z,15.21
2018-09-02T07:10:10.874Z,15.22
2018-09-02T07:12:44.317Z,15.32
2018-09-02T07:15:17.542Z,15.28
2018-09-02T07:17:50.689Z,15.18
2018-09-02T07:20:23.877Z,15.16
2018-09-02T07:22:57.082Z,15.19
2018-09-02T07:25:30.238Z,15.15
2018-09-02T07:28:03.396Z,15.21
2018-09-02T07:30:37.429Z,15.19
2018-09-02T07:33:10.605Z,15.18
2018-09-02T07:35:50.740Z,15.21
2018-09-02T07:38:23.956Z,15.23
2018-09-02T07:40:57.124Z,15.24
2018-09-02T07:43:30.278Z,15.25
2018-09-02T07:46:03.778Z,15.36
2018-09-02T07:48:36.978Z,15.53
2018-09-02T07:51:10.112Z,15.55
2018-09-02T07:53:43.314Z,15.59
2018-09-02T07:56:16.488Z,15.61
2018-09-02T07:58:49.741Z,15.57
2018-09-02T08:01:22.883Z,15.53
2018-09-02T08:03:56.093Z,15.56
2018-09-02T08:06:29.321Z,15.59
2018-09-02T08:09:03.570Z,15.64
2018-09-02T08:11:36.777Z,15.67
2018-09-02T08:14:09.920Z,15.67
2018-09-02T08:16:43.184Z,15.63
2018-09-02T08:19:16.366Z,15.68
2018-09-02T08:21:49.637Z,15.67
2018-09-02T08:24:22.823Z,15.74
2018-09-02T08:26:55.996Z,15.74
2018-09-02T08:29:29.178Z,15.74
2018-09-02T08:32:02.301Z,15.72
2018-09-02T08:34:35.522Z,15.78
2018-09-02T08:37:08.676Z,15.83
2018-09-02T08:39:41.888Z,15.85
2018-09-02T08:42:15.094Z,15.90
2018-09-02T08:44:48.560Z,15.92
2018-09-02T08:47:21.777Z,16.00
2018-09-02T08:49:54.945Z,16.02
2018-09-02T08:52:28.054Z,15.90
2018-09-02T08:55:01.221Z,15.98
2018-09-02T08:57:34.469Z,16.07
2018-09-02T09:00:09.156Z,15.92
2018-09-02T09:02:42.347Z,15.83
2018-09-02T09:05:15.555Z,15.81
2018-09-02T09:07:48.972Z,15.85
2018-09-02T09:10:22.043Z,15.76
2018-09-02T09:12:55.293Z,15.73
2018-09-02T09:15:28.470Z,15.84
2018-09-02T09:18:01.749Z,15.83
2018-09-02T09:20:34.971Z,15.83
2018-09-02T09:23:08.162Z,15.89
2018-09-02T09:25:41.394Z,16.01
2018-09-02T09:28:14.569Z,16.05
2018-09-02T09:30:47.682Z,16.08
2018-09-02T09:33:20.894Z,16.12
2018-09-02T09:35:54.145Z,16.16
2018-09-02T09:38:27.361Z,16.28
2018-09-02T09:41:00.562Z,16.21
2018-09-02T09:43:33.865Z,16.30
2018-09-02T09:46:07.178Z,16.39
2018-09-02T09:48:40.308Z,16.34
2018-09-02T09:51:13.569Z,16.39
2018-09-02T09:53:46.781Z,16.64
2018-09-02T09:56:20.004Z,16.53
2018-09-02T09:58:53.204Z,16.47
2018-09-02T10:01:26.346Z,16.42
2018-09-02T10:03:59.702Z,16.42
2018-09-02T10:06:32.915Z,16.42
2018-09-02T10:09:11.283Z,16.44
2018-09-02T10:11:44.706Z,16.38
2018-09-02T10:14:17.853Z,16.24
2018-09-02T10:16:51.114Z,16.24
2018-09-02T10:19:24.312Z,16.34
2018-09-02T10:21:57.602Z,16.23
2018-09-02T10:24:30.878Z,16.23
2018-09-02T10:27:04.130Z,16.28
2018-09-02T10:29:37.349Z,16.34
2018-09-02T10:32:10.592Z,16.38
2018-09-02T10:34:43.806Z,16.44
2018-09-02T10:37:17.075Z,16.43
2018-09-02T10:39:50.316Z,16.51
2018-09-02T10:42:23.665Z,16.42
2018-09-02T10:44:56.952Z,16.37
2018-09-02T10:47:30.167Z,16.35
2018-09-02T10:50:03.525Z,16.33
2018-09-02T10:52:36.786Z,16.34
2018-09-02T10:55:10.030Z,16.34
2018-09-02T10:57:43.289Z,16.33
2018-09-02T11:00:16.670Z,16.37
2018-09-02T11:02:49.849Z,16.38
2018-09-02T11:05:23.136Z,16.40
2018-09-02T11:07:56.318Z,16.43
2018-09-02T11:10:29.606Z,16.45
2018-09-02T11:13:02.883Z,16.43
2018-09-02T11:15:36.550Z,16.39
2018-09-02T11:18:09.834Z,16.41
2018-09-02T11:20:43.111Z,16.42
2018-09-02T11:23:16.319Z,16.45
2018-09-02T11:25:49.595Z,16.52
2018-09-02T11:28:22.766Z,16.49
2018-09-02T11:30:56.008Z,16.60
2018-09-02T11:33:29.258Z,16.53
2018-09-02T11:36:02.469Z,16.49
2018-09-02T11:38:35.619Z,16.44
2018-09-02T11:41:08.804Z,16.45
2018-09-02T11:43:41.998Z,16.59
2018-09-02T11:46:15.225Z,16.61
2018-09-02T11:48:48.369Z,16.63
2018-09-02T11:51:21.541Z,16.63
2018-09-02T11:53:54.754Z,16.66
2018-09-02T11:56:27.944Z,16.71
2018-09-02T11:59:01.162Z,16.77
2018-09-02T12:01:34.514Z,16.70
2018-09-02T12:04:08.051Z,16.77
2018-09-02T12:06:41.332Z,16.76
2018-09-02T12:09:14.552Z,16.85
2018-09-02T12:11:47.826Z,16.79
2018-09-02T12:14:21.023Z,16.89
2018-09-02T12:16:54.277Z,16.97
2018-09-02T12:19:27.477Z,17.07
2018-09-02T12:22:00.782Z,17.13
2018-09-02T12:24:34.034Z,17.13
2018-09-02T12:27:07.290Z,17.02
2018-09-02T12:29:40.497Z,16.99
2018-09-02T12:32:13.795Z,16.91
2018-09-02T12:34:47.029Z,16.76
2018-09-02T12:37:20.176Z,16.66
2018-09-02T12:39:53.341Z,16.59
2018-09-02T12:42:26.604Z,16.65
2018-09-02T12:44:59.867Z,16.71
2018-09-02T12:47:33.175Z,16.64
2018-09-02T12:50:06.442Z,16.57
2018-09-02T12:52:39.692Z,16.64
2018-09-02T12:55:13.130Z,16.66
2018-09-02T12:57:46.288Z,16.61
2018-09-02T13:00:19.532Z,16.41
2018-09-02T13:02:52.703Z,16.43
2018-09-02T13:05:25.997Z,16.38
2018-09-02T13:07:59.184Z,16.44
2018-09-02T13:10:32.498Z,16.43
2018-09-02T13:13:06.019Z,16.30
2018-09-02T13:15:39.253Z,16.33
2018-09-02T13:18:12.449Z,16.41
2018-09-02T13:20:45.699Z,16.53
2018-09-02T13:23:18.944Z,16.61
2018-09-02T13:25:52.216Z,16.58
2018-09-02T13:28:25.414Z,16.52
2018-09-02T13:30:58.658Z,16.55
2018-09-02T13:33:31.902Z,16.58
2018-09-02T13:36:05.218Z,16.59
2018-09-02T13:38:38.457Z,16.56
2018-09-02T13:41:11.679Z,16.60
2018-09-02T13:43:44.841Z,16.60
2018-09-02T13:46:18.177Z,16.64
2018-09-02T13:48:51.481Z,16.72
2018-09-02T13:51:24.871Z,16.54
2018-09-02T13:53:58.161Z,16.53
2018-09-02T13:56:31.415Z,16.51
2018-09-02T13:59:04.680Z,16.47
2018-09-02T14:01:37.948Z,16.47
2018-09-02T14:04:11.340Z,16.56
2018-09-02T14:06:44.581Z,16.65
2018-09-02T14:09:17.774Z,16.69
2018-09-02T14:11:51.033Z,16.70
2018-09-02T14:14:24.340Z,16.68
2018-09-02T14:16:57.625Z,16.77
2018-09-02T14:19:30.958Z,16.81
2018-09-02T14:22:04.265Z,16.89
2018-09-02T14:24:37.505Z,16.97
2018-09-02T14:27:10.705Z,17.01
2018-09-02T14:29:44.003Z,17.02
2018-09-02T14:32:17.213Z,17.03
2018-09-02T14:34:50.492Z,16.97
2018-09-02T14:37:23.777Z,16.92
2018-09-02T14:40:04.002Z,16.87
2018-09-02T14:42:37.249Z,16.86
2018-09-02T14:45:10.476Z,16.92
2018-09-02T14:47:43.849Z,16.88
2018-09-02T14:50:17.156Z,16.83
2018-09-02T14:52:50.371Z,16.82
2018-09-02T14:55:23.694Z,16.81
2018-09-02T14:57:57.041Z,16.82
2018-09-02T15:00:30.336Z,16.83
2018-09-02T15:03:03.542Z,16.79
2018-09-02T15:05:36.796Z,16.80
2018-09-02T15:08:09.980Z,16.82
2018-09-02T15:10:43.271Z,16.82
2018-09-02T15:13:16.611Z,16.84
2018-09-02T15:15:49.809Z,16.81
2018-09-02T15:18:23.053Z,16.76
2018-09-02T15:20:56.379Z,16.76
2018-09-02T15:23:29.630Z,16.70
2018-09-02T15:26:02.821Z,16.79
2018-09-02T15:28:36.118Z,16.82
2018-09-02T15:31:09.321Z,16.82
2018-09-02T15:33:42.551Z,16.81
2018-09-02T15:36:15.813Z,16.78
2018-09-02T15:38:49.126Z,16.88
2018-09-02T15:41:22.358Z,16.80
2018-09-02T15:43:55.597Z,16.87
2018-09-02T15:46:28.820Z,16.93
2018-09-02T15:49:02.061Z,17.02
2018-09-02T15:51:35.279Z,17.07
2018-09-02T15:54:08.534Z,17.03
2018-09-02T15:56:41.803Z,16.98
2018-09-02T15:59:15.070Z,17.00
2018-09-02T16:01:48.242Z,16.95
2018-09-02T16:04:21.531Z,16.86
2018-09-02T16:06:54.807Z,16.90
2018-09-02T16:09:28.010Z,16.73
2018-09-02T16:12:01.246Z,16.80
2018-09-02T16:14:34.423Z,16.76
2018-09-02T16:17:07.688Z,16.78
2018-09-02T16:19:40.970Z,16.81
2018-09-02T16:22:14.349Z,16.84
2018-09-02T16:24:47.578Z,16.79
2018-09-02T16:27:20.812Z,16.77
2018-09-02T16:29:53.967Z,16.78
2018-09-02T16:32:28.927Z,16.81
2018-09-02T16:35:02.642Z,16.79
2018-09-02T16:37:35.900Z,16.79
2018-09-02T16:40:09.082Z,16.77
2018-09-02T16:42:42.443Z,16.59
2018-09-02T16:45:15.785Z,16.57
2018-09-02T16:47:49.029Z,16.61
2018-09-02T16:50:22.304Z,16.66
2018-09-02T16:52:55.645Z,16.67
2018-09-02T16:55:28.784Z,16.68
2018-09-02T16:58:02.033Z,16.70
2018-09-02T17:00:35.365Z,16.63
2018-09-02T17:03:08.608Z,16.67
2018-09-02T17:05:41.848Z,16.75
2018-09-02T17:08:15.063Z,16.78
2018-09-02T17:10:48.369Z,16.77
2018-09-02T17:13:21.909Z,16.77
2018-09-02T17:15:55.388Z,16.78
2018-09-02T17:18:28.651Z,16.81
2018-09-02T17:21:01.948Z,16.74
2018-09-02T17:23:35.189Z,16.80
2018-09-02T17:26:08.573Z,16.81
2018-09-02T17:28:41.786Z,16.66
2018-09-02T17:31:15.129Z,16.69
2018-09-02T17:33:48.419Z,16.64
2018-09-02T17:36:21.647Z,16.62
2018-09-02T17:38:54.961Z,16.69
2018-09-02T17:41:28.221Z,16.62
2018-09-02T17:44:01.454Z,16.63
2018-09-02T17:46:34.702Z,16.58
2018-09-02T17:49:07.872Z,16.56
2018-09-02T17:51:41.088Z,16.52
2018-09-02T17:54:14.399Z,16.49
2018-09-02T17:56:47.694Z,16.45
2018-09-02T17:59:20.861Z,16.45
2018-09-02T18:01:54.135Z,16.42
2018-09-02T18:04:27.330Z,16.43
2018-09-02T18:07:00.581Z,16.41
2018-09-02T18:09:33.803Z,16.42
2018-09-02T18:12:07.055Z,16.43
2018-09-02T18:14:40.311Z,16.42
2018-09-02T18:17:13.561Z,16.47
2018-09-02T18:19:46.798Z,16.44
2018-09-02T18:22:20.163Z,16.45
2018-09-02T18:24:53.895Z,16.51
2018-09-02T18:27:30.192Z,16.48
2018-09-02T18:30:03.710Z,16.52
2018-09-02T18:32:37.280Z,16.51
2018-09-02T18:35:10.652Z,16.51
2018-09-02T18:37:43.912Z,16.52
2018-09-02T18:40:17.539Z,16.54
2018-09-02T18:42:51.112Z,16.53
2018-09-02T18:45:24.926Z,16.53
2018-09-02T18:47:58.159Z,16.50
2018-09-02T18:50:31.520Z,16.51
2018-09-02T18:53:04.821Z,16.50
2018-09-02T18:55:38.371Z,16.50
2018-09-02T18:58:11.784Z,16.49
2018-09-02T19:00:45.168Z,16.49
2018-09-02T19:03:18.475Z,16.50
2018-09-02T19:05:51.858Z,16.50
2018-09-02T19:08:25.422Z,16.48
2018-09-02T19:10:59.008Z,16.48
2018-09-02T19:13:32.515Z,16.48
2018-09-02T19:16:06.221Z,16.49
2018-09-02T19:18:39.610Z,16.52
2018-09-02T19:21:13.219Z,16.52
2018-09-02T19:23:46.827Z,16.53
2018-09-02T19:26:20.312Z,16.52
2018-09-02T19:28:53.605Z,16.49
2018-09-02T19:31:27.170Z,16.48
2018-09-02T19:34:00.638Z,16.46
2018-09-02T19:36:34.089Z,16.47
2018-09-02T19:39:09.642Z,16.49
2018-09-02T19:41:43.031Z,16.50
2018-09-02T19:44:16.254Z,16.49
2018-09-02T19:46:49.575Z,16.50
2018-09-02T19:49:23.041Z,16.50
2018-09-02T19:51:56.426Z,16.49
2018-09-02T19:54:29.745Z,16.50
2018-09-02T19:57:02.992Z,16.52
2018-09-02T19:59:36.300Z,16.51
2018-09-02T20:02:09.596Z,16.50
2018-09-02T20:04:42.826Z,16.50
2018-09-02T20:07:16.078Z,16.51
2018-09-02T20:09:49.396Z,16.47
2018-09-02T20:12:22.652Z,16.47
2018-09-02T20:14:55.933Z,16.44
2018-09-02T20:17:29.259Z,16.42
2018-09-02T20:20:02.724Z,16.41
2018-09-02T20:22:35.916Z,16.38
2018-09-02T20:25:09.208Z,16.39
2018-09-02T20:27:42.430Z,16.39
2018-09-02T20:30:15.781Z,16.38
2018-09-02T20:32:49.062Z,16.39
2018-09-02T20:35:22.400Z,16.40
2018-09-02T20:37:55.701Z,16.41
2018-09-02T20:40:29.115Z,16.41
2018-09-02T20:43:02.361Z,16.43
2018-09-02T20:45:35.640Z,16.43
2018-09-02T20:48:08.902Z,16.44
2018-09-02T20:50:42.092Z,16.45
2018-09-02T20:53:15.404Z,16.45
2018-09-02T20:55:48.602Z,16.47
2018-09-02T20:58:21.943Z,16.46
2018-09-02T21:00:55.181Z,16.47
2018-09-02T21:03:28.929Z,16.47
2018-09-02T21:06:02.216Z,16.46
2018-09-02T21:08:35.478Z,16.44
2018-09-02T21:11:08.693Z,16.43
2018-09-02T21:13:41.917Z,16.41
2018-09-02T21:16:15.054Z,16.46
2018-09-02T21:18:48.280Z,16.43
2018-09-02T21:21:21.507Z,16.43
2018-09-02T21:23:54.758Z,16.39
2018-09-02T21:26:27.998Z,16.42
2018-09-02T21:29:01.216Z,16.43
2018-09-02T21:31:34.459Z,16.47
2018-09-02T21:34:07.745Z,16.47
2018-09-02T21:36:40.955Z,16.46
2018-09-02T21:39:14.282Z,16.43
2018-09-02T21:41:47.557Z,16.43
2018-09-02T21:44:20.757Z,16.48
2018-09-02T21:46:53.960Z,16.46
2018-09-02T21:49:27.073Z,16.47
2018-09-02T21:52:00.385Z,16.47
2018-09-02T21:54:33.535Z,16.48
2018-09-02T21:57:06.743Z,16.47
2018-09-02T21:59:39.923Z,16.47
2018-09-02T22:02:13.182Z,16.47
2018-09-02T22:04:46.348Z,16.48
2018-09-02T22:07:19.549Z,16.49
2018-09-02T22:09:52.784Z,16.46
2018-09-02T22:12:25.972Z,16.47
2018-09-02T22:14:59.110Z,16.55
2018-09-02T22:17:32.406Z,16.47
2018-09-02T22:20:05.972Z,16.46
2018-09-02T22:22:39.163Z,16.44
2018-09-02T22:25:12.447Z,16.45
2018-09-02T22:27:45.668Z,16.46
2018-09-02T22:30:18.882Z,16.47
2018-09-02T22:32:52.088Z,16.46
2018-09-02T22:35:25.269Z,16.42
2018-09-02T22:37:58.437Z,16.40
2018-09-02T22:40:31.682Z,16.38
2018-09-02T22:43:04.890Z,16.35
2018-09-02T22:45:38.084Z,16.33
2018-09-02T22:48:11.327Z,16.34
2018-09-02T22:50:44.437Z,16.37
2018-09-02T22:53:17.638Z,16.33
2018-09-02T22:55:50.765Z,16.32
2018-09-02T22:58:24.014Z,16.31
2018-09-02T23:00:57.150Z,16.32
2018-09-02T23:03:30.303Z,16.32
2018-09-02T23:06:03.475Z,16.32
2018-09-02T23:08:36.653Z,16.31
2018-09-02T23:11:09.889Z,16.33
2018-09-02T23:13:43.009Z,16.33
2018-09-02T23:16:16.199Z,16.34
2018-09-02T23:18:49.352Z,16.37
2018-09-02T23:21:22.513Z,16.38
2018-09-02T23:23:55.760Z,16.37
2018-09-02T23:26:28.970Z,16.37
2018-09-02T23:29:02.182Z,16.36
2018-09-02T23:31:35.374Z,16.38
2018-09-02T23:34:08.492Z,16.39
2018-09-02T23:36:41.638Z,16.35
2018-09-02T23:39:14.777Z,16.37
2018-09-02T23:41:48.010Z,16.35
2018-09-02T23:44:21.136Z,16.38
2018-09-02T23:46:54.373Z,16.37
2018-09-02T23:49:27.539Z,16.35
2018-09-02T23:52:00.737Z,16.31
2018-09-02T23:54:33.888Z,16.26
2018-09-02T23:57:07.071Z,16.21
2018-09-02T23:59:40.233Z,16.20
